Time;durP1;ratioP1;P1;durP2;ratioP2;P2;SDS_P1;SDS_P2;PMS_P1;PMS_P2;Temp;Humidity;BMP_temperature;BMP_pressure;BME280_temperature;BME280_humidity;BME280_pressure;Samples;Min_cycle;Max_cycle;Signal;HPM_P1;HPM_P2
2022/10/23 00:01:32;;;;;;;65.10;51.92;;;;;;;11.17;100.00;101027.69;4919697;29;20450;-69
2022/10/23 00:04:03;;;;;;;59.88;32.67;;;;;;;11.16;100.00;101017.97;4952747;29;20074;-69
2022/10/23 00:06:31;;;;;;;83.90;39.50;;;;;;;11.10;100.00;101013.38;4952889;29;20031;-67
2022/10/23 00:08:56;;;;;;;47.80;26.58;;;;;;;11.08;100.00;101015.41;4935008;29;20035;-68
2022/10/23 00:11:28;;;;;;;38.92;22.33;;;;;;;11.16;100.00;101017.97;4935616;29;20031;-68
2022/10/23 00:13:56;;;;;;;66.07;25.23;;;;;;;11.12;100.00;101016.66;4935479;29;20524;-68
2022/10/23 00:16:21;;;;;;;51.50;23.40;;;;;;;11.16;100.00;101015.28;4952773;28;20047;-68
2022/10/23 00:18:47;;;;;;;30.38;16.63;;;;;;;11.17;100.00;101011.53;4952386;29;20035;-67
2022/10/23 00:21:14;;;;;;;37.20;17.35;;;;;;;11.00;100.00;100984.09;4952717;29;20086;-68
2022/10/23 00:23:40;;;;;;;36.72;17.80;;;;;;;11.17;100.00;101008.84;4952804;29;20506;-68
2022/10/23 00:26:07;;;;;;;38.47;17.20;;;;;;;11.18;100.00;100999.72;4952639;29;20067;-68
2022/10/23 00:28:33;;;;;;;30.67;15.73;;;;;;;11.20;100.00;101010.31;4935470;29;20035;-68
2022/10/23 00:31:03;;;;;;;44.90;18.38;;;;;;;11.21;100.00;100996.63;4951961;29;20529;-68
2022/10/23 00:33:28;;;;;;;25.48;13.70;;;;;;;11.21;100.00;101007.41;4952564;29;20039;-68
2022/10/23 00:35:54;;;;;;;23.98;14.25;;;;;;;11.19;100.00;100997.88;4952693;29;20039;-68
2022/10/23 00:38:19;;;;;;;16.60;12.95;;;;;;;11.20;100.00;100999.53;4919704;29;20093;-69
2022/10/23 00:40:45;;;;;;;31.25;16.83;;;;;;;11.20;100.00;100995.00;4952583;29;20454;-68
2022/10/23 00:43:22;;;;;;;22.05;13.75;;;;;;;11.20;100.00;100994.16;4919668;29;20079;-68
2022/10/23 00:45:47;;;;;;;26.75;15.20;;;;;;;11.19;100.00;100987.94;4954063;28;20031;-68
2022/10/23 00:48:13;;;;;;;24.73;14.57;;;;;;;11.20;100.00;100991.47;4955980;29;20375;-69
2022/10/23 00:50:40;;;;;;;20.75;11.65;;;;;;;11.19;100.00;100987.94;4956015;29;20079;-68
2022/10/23 00:53:08;;;;;;;14.45;11.48;;;;;;;11.13;100.00;100977.97;4922697;29;20474;-69
2022/10/23 00:55:34;;;;;;;17.08;12.27;;;;;;;11.20;100.00;100986.09;4955500;29;20106;-68
2022/10/23 00:58:00;;;;;;;30.20;16.38;;;;;;;11.06;100.00;100960.94;4938775;29;20118;-69
2022/10/23 01:00:40;;;;;;;35.03;17.15;;;;;;;11.21;100.00;100982.34;4938671;29;20115;-68
2022/10/23 01:03:06;;;;;;;28.17;15.05;;;;;;;11.22;100.00;100986.69;4955738;29;20038;-68
2022/10/23 01:05:41;;;;;;;22.40;13.40;;;;;;;11.23;100.00;100989.22;4938510;29;20033;-68
2022/10/23 01:08:18;;;;;;;23.30;12.35;;;;;;;11.22;100.00;100982.13;4955737;29;20070;-68
2022/10/23 01:10:56;;;;;;;44.38;20.13;;;;;;;11.19;100.00;100982.56;4955690;29;20054;-68
2022/10/23 01:13:24;;;;;;;24.55;13.57;;;;;;;11.17;100.00;100979.22;4940863;29;20034;-68
2022/10/23 01:16:15;;;;;;;24.10;13.35;;;;;;;11.17;100.00;100979.22;4938564;29;20031;-68
2022/10/23 01:18:46;;;;;;;33.78;16.13;;;;;;;11.06;100.00;100977.09;4938182;29;20447;-68
2022/10/23 01:21:22;;;;;;;35.30;17.75;;;;;;;11.02;100.00;100962.34;4938072;29;20035;-68
2022/10/23 01:24:05;;;;;;;32.53;16.60;;;;;;;11.07;100.00;100973.38;4955555;29;20027;-68
2022/10/23 01:26:45;;;;;;;32.53;16.70;;;;;;;11.10;100.00;100964.88;4938163;29;20031;-68
2022/10/23 01:29:19;;;;;;;31.95;16.70;;;;;;;11.16;100.00;100974.00;4955138;29;20523;-68
2022/10/23 01:32:09;;;;;;;73.35;26.55;;;;;;;11.12;100.00;100970.88;4955342;29;20046;-68
2022/10/23 01:34:49;;;;;;;47.50;20.05;;;;;;;11.40;100.00;100972.72;4955205;28;20150;-68
2022/10/23 01:37:22;;;;;;;38.17;17.55;;;;;;;11.35;100.00;100977.84;4939416;29;20503;-68
2022/10/23 01:39:53;;;;;;;48.53;19.65;;;;;;;11.45;100.00;100972.91;4937975;29;20246;-68
2022/10/23 01:42:22;;;;;;;38.55;16.88;;;;;;;11.35;100.00;100965.22;4955193;29;20039;-68
2022/10/23 01:45:00;;;;;;;33.55;14.90;;;;;;;11.33;100.00;100951.13;4954940;29;20143;-68
2022/10/23 01:47:29;;;;;;;37.10;16.33;;;;;;;11.51;100.00;100958.66;4923540;29;20049;-68
2022/10/23 01:49:57;;;;;;;47.42;17.80;;;;;;;11.53;100.00;100951.22;4954954;29;20050;-68
2022/10/23 01:52:23;;;;;;;35.40;15.50;;;;;;;11.56;100.00;100955.38;4955015;29;20050;-68
2022/10/23 01:54:52;;;;;;;36.25;15.55;;;;;;;11.52;100.00;100957.59;4937541;29;20480;-68
2022/10/23 01:57:21;;;;;;;34.35;14.75;;;;;;;11.52;100.00;100952.22;4922077;29;20046;-68
2022/10/23 01:59:52;;;;;;;39.50;16.05;;;;;;;11.23;100.00;100934.50;4937465;29;20051;-67
2022/10/23 02:02:20;;;;;;;48.22;18.40;;;;;;;11.35;100.00;100954.44;4937705;29;20459;-68
2022/10/23 02:05:13;;;;;;;41.15;16.45;;;;;;;11.52;100.00;100952.22;4954842;29;20127;-68
2022/10/23 02:07:42;;;;;;;35.53;14.98;;;;;;;11.48;100.00;100940.19;4898475;29;20523;-68
2022/10/23 02:10:09;;;;;;;35.22;15.60;;;;;;;11.63;100.00;100951.66;4914177;29;20122;-68
2022/10/23 02:12:50;;;;;;;38.83;17.00;;;;;;;11.67;100.00;100946.69;4914332;29;20452;-68
2022/10/23 02:15:35;;;;;;;46.22;18.73;;;;;;;11.66;100.00;100951.25;4914368;29;20028;-68
2022/10/23 02:18:31;;;;;;;40.83;17.65;;;;;;;11.47;100.00;100946.63;4899641;29;20044;-68
2022/10/23 02:21:04;;;;;;;47.38;19.15;;;;;;;11.24;100.00;100911.91;4898322;29;20124;-68
2022/10/23 02:23:38;;;;;;;50.58;20.85;;;;;;;11.43;100.00;100939.97;4914058;29;20062;-68
2022/10/23 02:26:21;;;;;;;48.45;19.88;;;;;;;11.19;100.00;100912.53;4914159;29;20036;-68
2022/10/23 02:29:23;;;;;;;47.35;20.95;;;;;;;11.41;100.00;100936.66;4898002;29;20042;-68
2022/10/23 02:31:48;;;;;;;43.72;20.15;;;;;;;11.37;100.00;100938.91;4873693;29;20092;-68
2022/10/23 02:34:14;;;;;;;47.85;20.65;;;;;;;11.26;100.00;100915.25;4897953;29;20044;-68
2022/10/23 02:36:40;;;;;;;45.50;21.42;;;;;;;11.41;100.00;100936.66;4913808;29;20044;-67
2022/10/23 02:39:05;;;;;;;37.55;17.38;;;;;;;11.27;100.00;100911.53;4931040;29;20044;-68
2022/10/23 02:41:41;;;;;;;42.55;18.98;;;;;;;11.41;100.00;100937.47;4953947;29;20398;-68
2022/10/23 02:44:31;;;;;;;45.58;19.65;;;;;;;11.41;100.00;100932.06;4954106;29;20035;-68
2022/10/23 02:47:15;;;;;;;42.83;20.35;;;;;;;11.42;100.00;100933.75;4953902;29;20482;-68
2022/10/23 02:49:58;;;;;;;39.72;18.05;;;;;;;11.41;100.00;100929.38;4936525;29;20576;-68
2022/10/23 02:52:31;;;;;;;46.92;19.52;;;;;;;11.43;100.00;100937.28;4936452;29;20043;-68
2022/10/23 02:55:23;;;;;;;39.63;18.60;;;;;;;11.45;100.00;100937.91;4936482;29;20034;-68
2022/10/23 02:57:57;;;;;;;33.53;16.20;;;;;;;11.44;100.00;100934.38;4953744;29;20042;-68
2022/10/23 03:00:23;;;;;;;34.38;16.52;;;;;;;11.45;100.00;100927.94;4936433;29;20111;-68
2022/10/23 03:03:02;;;;;;;36.47;16.00;;;;;;;11.46;100.00;100929.63;4936403;29;20174;-68
2022/10/23 03:05:32;;;;;;;35.40;15.55;;;;;;;11.47;100.00;100931.28;4939069;29;20136;-68
2022/10/23 03:07:58;;;;;;;36.47;14.23;;;;;;;11.47;100.00;100925.88;4953093;28;20449;-68
2022/10/23 03:10:23;;;;;;;30.98;13.70;;;;;;;11.39;100.00;100919.84;4936288;29;20035;-68
2022/10/23 03:12:49;;;;;;;30.80;13.18;;;;;;;11.49;100.00;100933.78;4953963;28;20138;-68
2022/10/23 03:15:15;;;;;;;26.25;12.07;;;;;;;11.50;100.00;100930.88;4953408;29;20039;-69
2022/10/23 03:17:42;;;;;;;21.52;11.52;;;;;;;11.50;100.00;100930.06;4953455;29;20949;-68
2022/10/23 03:20:10;;;;;;;23.58;12.10;;;;;;;11.49;100.00;100926.53;4920369;29;20043;-69
2022/10/23 03:22:35;;;;;;;27.42;12.43;;;;;;;11.52;100.00;100936.06;4953550;29;20181;-69
2022/10/23 03:25:01;;;;;;;23.15;11.88;;;;;;;11.53;100.00;100932.34;4918459;29;20542;-69
2022/10/23 03:27:26;;;;;;;25.27;12.18;;;;;;;11.54;100.00;100931.31;4936077;29;20034;-69
2022/10/23 03:29:54;;;;;;;24.55;11.52;;;;;;;11.46;100.00;100913.47;4935765;29;20047;-69
2022/10/23 03:32:19;;;;;;;26.90;11.80;;;;;;;11.55;100.00;100926.75;4916933;29;20044;-69
2022/10/23 03:34:51;;;;;;;24.15;11.63;;;;;;;11.45;100.00;100903.69;4948566;29;20038;-69
2022/10/23 03:37:16;;;;;;;22.08;10.15;;;;;;;11.56;100.00;100925.72;4920593;29;20166;-69
2022/10/23 03:39:42;;;;;;;18.65;9.52;;;;;;;11.51;100.00;100912.84;4935795;29;20113;-69
2022/10/23 03:42:07;;;;;;;20.52;9.45;;;;;;;11.59;100.00;100928.00;4935789;29;20066;-68
2022/10/23 03:44:33;;;;;;;18.50;8.75;;;;;;;11.59;100.00;100918.06;4953133;29;20520;-69
2022/10/23 03:47:04;;;;;;;19.25;8.50;;;;;;;11.61;100.00;100921.38;4935788;29;20035;-69
2022/10/23 03:49:30;;;;;;;16.75;8.10;;;;;;;11.60;100.00;100911.63;4953109;28;20030;-69
2022/10/23 03:51:55;;;;;;;17.33;7.88;;;;;;;11.61;100.00;100915.16;4935717;29;20035;-69
2022/10/23 03:54:22;;;;;;;15.57;7.68;;;;;;;11.62;100.00;100917.66;4935842;29;20073;-69
2022/10/23 03:56:48;;;;;;;17.80;8.15;;;;;;;11.64;100.00;100914.75;4935673;29;20473;-68
2022/10/23 03:59:16;;;;;;;13.60;7.53;;;;;;;11.65;100.00;100913.69;4952863;29;20035;-68
2022/10/23 04:01:41;;;;;;;15.65;8.00;;;;;;;11.68;100.00;100910.59;4919736;29;20039;-69
2022/10/23 04:04:07;;;;;;;19.10;8.18;;;;;;;11.65;100.00;100911.00;4935916;29;20054;-69
2022/10/23 04:06:33;;;;;;;14.13;7.68;;;;;;;11.67;100.00;100909.78;4919931;29;20048;-68
2022/10/23 04:08:58;;;;;;;16.50;8.00;;;;;;;11.70;100.00;100916.63;4917111;29;20038;-69
2022/10/23 04:11:23;;;;;;;14.75;7.40;;;;;;;11.65;100.00;100911.84;4916545;29;20036;-69
2022/10/23 04:13:49;;;;;;;15.30;7.78;;;;;;;11.74;100.00;100920.56;4923803;29;20035;-68
2022/10/23 04:16:14;;;;;;;17.45;8.30;;;;;;;11.73;100.00;100919.75;4935558;29;20051;-69
2022/10/23 04:18:40;;;;;;;20.08;9.80;;;;;;;11.77;100.00;100926.38;4952765;29;20027;-69
2022/10/23 04:21:06;;;;;;;22.80;9.30;;;;;;;11.78;100.00;100924.50;4937855;29;20046;-69
2022/10/23 04:23:35;;;;;;;25.08;9.75;;;;;;;11.82;100.00;100927.63;4938800;29;20039;-69
2022/10/23 04:26:00;;;;;;;33.75;12.70;;;;;;;11.84;100.00;100931.81;4939435;29;20042;-69
2022/10/23 04:28:26;;;;;;;35.60;12.73;;;;;;;11.77;100.00;100907.50;4939292;29;20027;-69
2022/10/23 04:30:52;;;;;;;37.17;14.68;;;;;;;11.91;100.00;100921.88;4956432;29;20062;-69
2022/10/23 04:33:17;;;;;;;44.20;14.30;;;;;;;11.95;100.00;100922.28;4923250;29;20086;-69
2022/10/23 04:35:43;;;;;;;41.65;15.73;;;;;;;11.89;100.00;100913.19;4956334;29;20031;-69
2022/10/23 04:38:08;;;;;;;60.47;17.85;;;;;;;12.01;100.00;100924.19;4939175;29;20094;-70
2022/10/23 04:40:33;;;;;;;51.50;18.15;;;;;;;12.05;100.00;100927.28;4956109;29;20094;-69
2022/10/23 04:42:59;;;;;;;50.72;18.42;;;;;;;11.96;100.00;100911.31;4938889;29;20122;-69
2022/10/23 04:45:24;;;;;;;69.13;20.20;;;;;;;12.11;100.00;100932.69;4956295;28;20065;-69
2022/10/23 04:47:52;;;;;;;62.38;19.95;;;;;;;12.14;100.00;100926.88;4956231;29;20114;-69
2022/10/23 04:50:18;;;;;;;56.00;18.73;;;;;;;12.16;100.00;100935.63;4956094;28;20031;-69
2022/10/23 04:52:43;;;;;;;74.97;21.67;;;;;;;12.10;100.00;100905.94;4938614;29;20037;-69
2022/10/23 04:55:08;;;;;;;86.03;21.80;;;;;;;12.26;100.00;100929.81;4938711;29;20031;-69
2022/10/23 04:57:34;;;;;;;81.30;23.13;;;;;;;12.30;100.00;100936.44;4956009;28;20046;-69
2022/10/23 04:59:59;;;;;;;75.78;22.42;;;;;;;12.33;100.00;100937.91;4938668;29;20035;-69
2022/10/23 05:02:26;;;;;;;82.28;23.85;;;;;;;12.40;100.00;100942.25;4938621;29;20071;-69
2022/10/23 05:05:10;;;;;;;89.35;25.60;;;;;;;12.41;100.00;100926.88;4896283;29;20049;-69
2022/10/23 05:07:36;;;;;;;92.47;24.42;;;;;;;12.49;100.00;100937.50;4880988;29;20093;-69
2022/10/23 05:10:03;;;;;;;76.32;24.58;;;;;;;12.53;100.00;100933.31;4880899;29;20547;-68
2022/10/23 05:12:29;;;;;;;91.03;25.88;;;;;;;12.59;100.00;100940.59;4862301;29;20168;-67
2022/10/23 05:14:54;;;;;;;83.07;22.98;;;;;;;12.63;100.00;100939.13;4893204;29;20431;-68
2022/10/23 05:17:28;;;;;;;90.97;22.90;;;;;;;12.63;100.00;100931.03;4880704;29;20041;-67
2022/10/23 05:19:56;;;;;;;71.05;20.15;;;;;;;12.72;100.00;100941.63;4880541;29;20036;-66
2022/10/23 05:22:25;;;;;;;76.80;18.80;;;;;;;12.77;100.00;100928.31;4880044;29;20048;-68
2022/10/23 05:24:52;;;;;;;77.22;21.33;;;;;;;12.83;100.00;100940.97;4880449;29;20639;-67
2022/10/23 05:27:17;;;;;;;97.45;21.45;;;;;;;12.85;100.00;100933.50;4896196;29;20041;-67
2022/10/23 05:29:43;;;;;;;87.47;21.02;;;;;;;12.86;100.00;100929.75;4880382;29;20059;-69
2022/10/23 05:32:11;;;;;;;86.28;20.77;;;;;;;12.90;100.00;100929.13;4882917;29;20051;-69
2022/10/23 05:34:38;;;;;;;70.40;18.73;;;;;;;12.90;100.00;100931.81;4895763;29;20533;-67
2022/10/23 05:37:06;;;;;;;76.35;18.25;;;;;;;12.94;100.00;100937.63;4914776;29;20053;-67
2022/10/23 05:39:32;;;;;;;75.07;17.98;;;;;;;12.93;100.00;100936.78;4937960;29;20482;-67
2022/10/23 05:42:00;;;;;;;66.05;17.52;;;;;;;12.93;100.00;100936.78;4937860;29;20035;-68
2022/10/23 05:44:26;;;;;;;57.10;16.48;;;;;;;12.94;100.00;100933.03;4937914;29;20042;-67
2022/10/23 05:46:51;;;;;;;57.47;15.90;;;;;;;12.93;100.00;100935.97;4937915;29;20047;-70
2022/10/23 05:49:16;;;;;;;49.15;15.15;;;;;;;12.98;100.00;100935.31;4954876;29;20405;-66
2022/10/23 05:51:42;;;;;;;55.33;15.90;;;;;;;12.94;100.00;100935.75;4921684;29;20035;-66
2022/10/23 05:54:08;;;;;;;53.70;15.07;;;;;;;12.92;100.00;100937.84;4938898;29;20082;-68
2022/10/23 05:56:34;;;;;;;50.42;13.85;;;;;;;12.94;100.00;100930.34;4955050;29;20126;-70
2022/10/23 05:59:00;;;;;;;56.47;14.43;;;;;;;12.94;100.00;100932.22;4954762;28;20039;-70
2022/10/23 06:01:26;;;;;;;45.67;13.10;;;;;;;12.82;100.00;100912.31;4937231;28;20027;-69
2022/10/23 06:03:51;;;;;;;55.60;14.35;;;;;;;12.90;100.00;100934.50;4954652;29;20552;-69
2022/10/23 06:06:17;;;;;;;56.88;12.85;;;;;;;12.93;100.00;100938.66;4937584;29;20086;-68
2022/10/23 06:08:42;;;;;;;42.10;12.20;;;;;;;12.86;100.00;100924.34;4921744;29;20038;-69
2022/10/23 06:11:10;;;;;;;37.65;10.93;;;;;;;12.92;100.00;100937.03;4937488;29;20046;-69
2022/10/23 06:13:36;;;;;;;39.33;11.10;;;;;;;12.90;100.00;100929.13;4954565;29;20023;-69
2022/10/23 06:16:12;;;;;;;44.13;11.38;;;;;;;12.92;100.00;100939.72;4937383;29;20062;-69
2022/10/23 06:18:38;;;;;;;34.10;10.05;;;;;;;12.90;100.00;100937.22;4954666;29;20035;-69
2022/10/23 06:21:04;;;;;;;40.83;10.65;;;;;;;12.90;100.00;100936.38;4947019;29;20062;-69
2022/10/23 06:23:31;;;;;;;37.42;10.77;;;;;;;12.89;100.00;100940.13;4937008;29;20590;-69
2022/10/23 06:25:59;;;;;;;33.50;10.18;;;;;;;12.90;100.00;100936.38;4937460;29;20050;-70
2022/10/23 06:28:25;;;;;;;40.88;10.43;;;;;;;12.83;100.00;100931.00;4921180;29;20035;-69
2022/10/23 06:30:50;;;;;;;40.28;10.38;;;;;;;12.80;100.00;100930.59;4920430;29;20410;-69
2022/10/23 06:33:18;;;;;;;38.17;10.50;;;;;;;12.84;100.00;100932.66;4954219;29;20391;-69
2022/10/23 06:35:44;;;;;;;32.40;9.98;;;;;;;12.91;100.00;100944.28;4937228;29;20027;-69
2022/10/23 06:38:09;;;;;;;30.60;9.50;;;;;;;12.93;100.00;100949.47;4917928;29;20035;-69
2022/10/23 06:40:36;;;;;;;26.83;8.85;;;;;;;12.94;100.00;100948.41;4947882;29;20031;-69
2022/10/23 06:43:03;;;;;;;34.78;9.32;;;;;;;12.93;100.00;100944.91;4952788;28;20094;-69
2022/10/23 06:45:31;;;;;;;28.95;7.38;;;;;;;12.93;100.00;100953.00;4936673;29;20090;-69
2022/10/23 06:47:56;;;;;;;20.55;6.60;;;;;;;12.96;100.00;100961.72;4953998;29;20502;-69
2022/10/23 06:50:24;;;;;;;16.92;6.43;;;;;;;12.97;100.00;100956.09;4953793;29;20035;-69
2022/10/23 06:52:49;;;;;;;20.98;6.50;;;;;;;12.97;100.00;100958.81;4953779;29;20031;-69
2022/10/23 06:55:15;;;;;;;23.55;5.68;;;;;;;12.91;100.00;100954.25;4952235;29;20031;-69
2022/10/23 06:57:40;;;;;;;17.45;5.32;;;;;;;12.99;100.00;100956.72;4916439;29;20070;-69
2022/10/23 07:00:06;;;;;;;16.45;5.50;;;;;;;12.99;100.00;100956.72;4926770;29;20390;-69
2022/10/23 07:02:32;;;;;;;18.02;5.22;;;;;;;12.98;100.00;100960.50;4936486;29;20054;-69
2022/10/23 07:04:57;;;;;;;20.50;6.18;;;;;;;13.01;100.00;100968.13;4936493;29;20027;-69
2022/10/23 07:07:22;;;;;;;17.80;5.53;;;;;;;12.88;100.00;100950.13;4937936;29;20034;-68
2022/10/23 07:09:48;;;;;;;22.15;5.95;;;;;;;13.04;100.00;100970.41;4936375;29;20038;-69
2022/10/23 07:12:13;;;;;;;22.35;6.43;;;;;;;13.02;100.00;100967.13;4953416;29;20031;-68
2022/10/23 07:14:44;;;;;;;22.98;6.40;;;;;;;13.07;100.00;100972.69;4936213;29;20030;-68
2022/10/23 07:17:12;;;;;;;21.00;5.80;;;;;;;13.10;100.00;100969.59;4937208;29;20039;-69
2022/10/23 07:19:37;;;;;;;19.55;5.75;;;;;;;13.12;100.00;100969.38;4936269;29;20031;-69
2022/10/23 07:22:03;;;;;;;17.85;6.45;;;;;;;13.14;100.00;100976.25;4936043;29;20089;-68
2022/10/23 07:24:30;;;;;;;24.55;6.20;;;;;;;13.15;100.00;100964.38;4920339;29;20541;-68
2022/10/23 07:26:55;;;;;;;18.50;5.57;;;;;;;13.21;100.00;100975.38;4953256;29;20506;-68
2022/10/23 07:29:21;;;;;;;18.73;6.00;;;;;;;13.12;100.00;100948.59;4953079;29;20051;-69
2022/10/23 07:31:46;;;;;;;20.25;5.90;;;;;;;13.28;100.00;100968.13;4920665;29;20101;-69
2022/10/23 07:34:11;;;;;;;22.23;5.45;;;;;;;13.30;100.00;100979.53;4935954;29;20059;-68
2022/10/23 07:36:37;;;;;;;27.58;6.10;;;;;;;13.31;100.00;100971.25;4935929;29;20043;-69
2022/10/23 07:39:02;;;;;;;25.23;6.53;;;;;;;13.39;100.00;100975.56;4935884;29;20439;-68
2022/10/23 07:41:28;;;;;;;23.55;5.60;;;;;;;13.38;100.00;100984.72;4952993;29;20031;-69
2022/10/23 07:43:53;;;;;;;23.60;6.50;;;;;;;13.39;100.00;100972.88;4919943;29;20163;-68
2022/10/23 07:46:19;;;;;;;23.92;6.35;;;;;;;13.41;100.00;100978.91;4916935;29;20035;-69
2022/10/23 07:48:44;;;;;;;31.83;7.20;;;;;;;13.43;100.00;100978.66;4930733;29;20070;-68
2022/10/23 07:51:15;;;;;;;27.77;6.32;;;;;;;13.45;100.00;100977.41;4935873;29;20055;-68
2022/10/23 07:53:41;;;;;;;24.67;6.63;;;;;;;13.33;100.00;100952.91;4952775;28;20106;-68
2022/10/23 07:56:17;;;;;;;25.77;6.60;;;;;;;13.45;100.00;100977.41;4953000;28;20043;-68
2022/10/23 07:58:43;;;;;;;22.42;6.80;;;;;;;13.46;100.00;100981.78;4953044;28;20039;-69
2022/10/23 08:01:20;;;;;;;22.60;6.07;;;;;;;13.52;100.00;100983.63;4920096;29;20127;-69
2022/10/23 08:03:48;;;;;;;20.55;6.03;;;;;;;13.50;100.00;100985.69;4935619;29;20046;-69
2022/10/23 08:06:13;;;;;;;28.58;5.88;;;;;;;13.55;100.00;100982.38;4952823;29;20035;-69
2022/10/23 08:08:39;;;;;;;16.75;5.50;;;;;;;13.60;100.00;100983.38;4935829;29;20037;-69
2022/10/23 08:11:04;;;;;;;20.20;5.93;;;;;;;13.67;100.00;100996.03;4952914;28;20442;-69
2022/10/23 08:13:30;;;;;;;22.40;5.13;;;;;;;13.69;100.00;100994.78;4953026;29;20471;-69
2022/10/23 08:15:55;;;;;;;23.90;5.18;;;;;;;13.74;100.00;100991.41;4935204;29;20043;-69
2022/10/23 08:18:21;;;;;;;25.13;5.15;;;;;;;13.65;100.00;100977.34;4935822;29;20055;-69
2022/10/23 08:20:47;;;;;;;19.02;4.75;;;;;;;13.81;100.00;100986.84;4935641;29;20043;-69
2022/10/23 08:23:16;;;;;;;20.60;4.30;;;;;;;13.80;100.00;101002.22;4943660;28;20071;-69
2022/10/23 08:25:42;;;;;;;22.15;4.57;;;;;;;13.47;100.00;100947.47;4922214;29;20066;-69
2022/10/23 08:28:08;;;;;;;19.58;4.20;;;;;;;13.79;100.00;100997.03;4935579;29;20074;-69
2022/10/23 08:30:34;;;;;;;15.35;3.88;;;;;;;13.79;100.00;101002.44;4952584;29;20436;-69
2022/10/23 08:33:05;;;;;;;18.90;4.55;;;;;;;13.79;100.00;101007.84;4935365;29;20118;-70
2022/10/23 08:35:36;;;;;;;11.82;3.70;;;;;;;13.83;100.00;101001.78;4935201;29;20501;-69
2022/10/23 08:38:01;;;;;;;20.90;4.07;;;;;;;13.86;100.00;101003.22;4941966;29;20047;-69
2022/10/23 08:40:27;;;;;;;18.08;4.50;;;;;;;13.81;100.00;100989.53;4952597;29;20042;-68
2022/10/23 08:43:00;;;;;;;19.85;4.22;;;;;;;13.89;100.00;101001.97;4919818;29;20038;-69
2022/10/23 08:45:31;;;;;;;18.98;4.70;;;;;;;13.91;100.00;101008.84;4937065;29;20043;-69
2022/10/23 08:48:03;;;;;;;20.27;4.85;;;;;;;13.99;100.00;101005.88;4952415;29;20495;-69
2022/10/23 08:50:34;;;;;;;27.70;5.57;;;;;;;14.08;100.00;101012.69;4952790;29;20031;-69
2022/10/23 08:53:10;;;;;;;23.27;5.28;;;;;;;14.13;100.00;101014.72;4952710;29;20058;-69
2022/10/23 08:55:41;;;;;;;24.40;5.50;;;;;;;14.18;100.00;101022.22;4921219;29;20026;-67
2022/10/23 08:58:14;;;;;;;22.00;5.75;;;;;;;14.14;100.00;101024.53;4935688;29;20114;-68
2022/10/23 09:00:41;;;;;;;23.13;5.65;;;;;;;14.16;100.00;101029.72;4935315;29;20030;-68
2022/10/23 09:03:10;;;;;;;25.77;5.47;;;;;;;14.20;100.00;101025.50;4952192;29;20399;-68
2022/10/23 09:05:53;;;;;;;28.80;5.95;;;;;;;14.21;100.00;101033.44;4952382;28;20031;-68
2022/10/23 09:08:36;;;;;;;22.55;5.78;;;;;;;14.20;100.00;101036.34;4955774;29;20059;-69
2022/10/23 09:11:31;;;;;;;23.77;5.35;;;;;;;14.20;100.00;101039.03;4938264;29;20467;-68
2022/10/23 09:14:26;;;;;;;29.35;6.47;;;;;;;14.25;100.00;101036.53;4955860;29;20031;-69
2022/10/23 09:17:03;;;;;;;22.23;5.03;;;;;;;14.22;100.00;101043.19;4955944;29;20462;-68
2022/10/23 09:19:30;;;;;;;26.02;6.32;;;;;;;14.22;100.00;101039.66;4922871;29;20495;-67
2022/10/23 09:21:57;;;;;;;28.33;6.25;;;;;;;14.26;100.00;101038.19;4939047;29;20061;-69
2022/10/23 09:24:25;;;;;;;37.22;15.73;;;;;;;14.27;100.00;101037.13;4938364;29;20418;-66
2022/10/23 09:26:52;;;;;;;31.27;7.65;;;;;;;14.32;100.00;101040.03;4938155;29;20042;-68
2022/10/23 09:29:21;;;;;;;26.90;6.68;;;;;;;14.40;100.00;101033.50;4922180;29;20142;-69
2022/10/23 09:31:50;;;;;;;24.60;6.43;;;;;;;14.39;100.00;101038.09;4951414;29;20035;-66
2022/10/23 09:34:19;;;;;;;33.13;6.82;;;;;;;14.38;100.00;101036.44;4933844;29;20468;-69
2022/10/23 09:36:53;;;;;;;27.52;6.72;;;;;;;14.45;100.00;101042.63;4954501;29;20035;-68
2022/10/23 09:39:38;;;;;;;22.98;5.72;;;;;;;14.47;100.00;101048.69;4954154;29;20371;-68
2022/10/23 09:42:22;;;;;;;30.67;6.22;;;;;;;14.52;100.00;101048.88;4936758;29;20586;-67
2022/10/23 09:44:49;;;;;;;31.55;6.47;;;;;;;14.51;100.00;101049.91;4954363;29;20486;-68
2022/10/23 09:47:19;;;;;;;35.17;6.97;;;;;;;14.45;100.00;101053.47;4931778;29;20035;-66
2022/10/23 09:49:56;;;;;;;27.45;7.00;;;;;;;14.43;100.00;101058.25;4930053;29;20122;-67
2022/10/23 09:52:34;;;;;;;26.95;8.38;;;;;;;14.37;100.00;101050.19;4951656;29;20066;-68
2022/10/23 09:55:21;;;;;;;26.20;7.03;;;;;;;14.41;100.00;101056.84;4936413;29;20023;-67
2022/10/23 09:57:48;;;;;;;30.30;7.85;;;;;;;14.39;100.00;101039.97;4933418;29;20031;-69
2022/10/23 10:00:13;;;;;;;28.98;7.20;;;;;;;14.42;100.00;101061.19;4937394;29;20042;-68
2022/10/23 10:02:41;;;;;;;32.72;6.80;;;;;;;14.38;100.00;101060.81;4936188;29;20035;-68
2022/10/23 10:05:26;;;;;;;28.75;6.72;;;;;;;14.41;100.00;101060.38;4953172;29;20060;-67
2022/10/23 10:07:57;;;;;;;35.22;7.22;;;;;;;14.46;100.00;101065.13;4954231;29;20413;-68
2022/10/23 10:10:23;;;;;;;26.40;6.32;;;;;;;14.51;100.00;101066.16;4936944;29;20023;-68
2022/10/23 10:12:55;;;;;;;31.80;6.55;;;;;;;14.49;100.00;101054.69;4953797;29;20023;-70
2022/10/23 10:15:39;;;;;;;35.03;6.65;;;;;;;14.60;100.00;101069.41;4936225;29;20050;-68
2022/10/23 10:18:04;;;;;;;34.13;6.50;;;;;;;14.56;100.00;101065.50;4936612;29;20035;-69
2022/10/23 10:20:42;;;;;;;29.35;5.97;;;;;;;14.48;100.00;101061.16;4936459;29;20038;-69
2022/10/23 10:23:18;;;;;;;24.40;6.40;;;;;;;14.50;100.00;101066.34;4953572;29;20038;-69
2022/10/23 10:25:56;;;;;;;28.23;5.82;;;;;;;14.46;100.00;101065.94;4953437;28;20102;-69
2022/10/23 10:28:41;;;;;;;31.50;6.40;;;;;;;14.44;100.00;101064.53;4933185;29;20402;-70
2022/10/23 10:31:18;;;;;;;;;;;;;;;14.45;100.00;101068.88;4933908;29;20102;-68
2022/10/23 10:33:55;;;;;;;26.65;5.90;;;;;;;14.45;100.00;101063.47;4954073;29;20390;-70
2022/10/23 10:36:48;;;;;;;27.73;6.15;;;;;;;14.46;100.00;101065.94;4926663;29;20044;-69
2022/10/23 10:39:16;;;;;;;32.22;6.28;;;;;;;14.44;100.00;101068.06;4952617;29;20410;-69
2022/10/23 10:41:55;;;;;;;27.15;5.82;;;;;;;14.43;100.00;101071.78;4953969;29;20493;-68
2022/10/23 10:44:49;;;;;;;23.67;5.57;;;;;;;14.32;100.00;101040.03;4953943;29;20042;-69
2022/10/23 10:47:37;;;;;;;26.85;5.22;;;;;;;14.48;100.00;101058.44;4936731;29;20035;-68
2022/10/23 10:50:21;;;;;;;21.25;5.43;;;;;;;14.44;100.00;101059.13;4879078;29;20127;-68
2022/10/23 10:53:01;;;;;;;23.02;5.50;;;;;;;14.50;100.00;101061.81;4875597;29;20518;-68
2022/10/23 10:55:37;;;;;;;25.10;4.63;;;;;;;14.59;100.00;101059.66;4875474;29;20036;-68
2022/10/23 10:58:29;;;;;;;32.20;5.20;;;;;;;14.61;100.00;101062.16;4868069;29;20127;-69
2022/10/23 11:00:57;;;;;;;22.02;4.88;;;;;;;14.39;100.00;101038.09;4875773;29;20509;-68
2022/10/23 11:03:38;;;;;;;22.52;5.30;;;;;;;14.53;100.00;101064.06;4893928;29;20661;-69
2022/10/23 11:06:08;;;;;;;25.30;4.75;;;;;;;14.49;100.00;101059.28;4893675;29;20050;-68
2022/10/23 11:08:38;;;;;;;21.65;4.32;;;;;;;14.56;100.00;101062.78;4894109;29;20547;-69
2022/10/23 11:11:39;;;;;;;20.98;4.32;;;;;;;14.56;100.00;101063.63;4886697;29;20192;-69
2022/10/23 11:14:13;;;;;;;22.65;4.25;;;;;;;14.51;100.00;101062.63;4868279;29;20128;-69
2022/10/23 11:16:41;;;;;;;16.25;3.70;;;;;;;14.56;100.00;101068.22;4875548;29;20516;-69
2022/10/23 11:19:21;;;;;;;21.27;4.00;;;;;;;14.51;100.00;101065.34;4891118;29;20036;-69